logo
App data

Alone in the Dark: Illumination

A darkness has fallen over the town of Lorwich. Monstrous hordes emerge from beyond the realm of nightmares to sow chaos on the land. As one of four heroes, you must battle the minions of the old ones with the force of arms, and the power of illumination.
Store | Hub | SteamDB
Developer: Pure FPS Publisher: THQ Nordic
Genre: Action, Adventure
Languages: English, French, Italian, German, Spanish - Spain
Tags: Action (34), Adventure (29), Horror (26), Co-op (21), Shooter (17), Multiplayer (17), Survival Horror (17), Illuminati (13), Lovecraftian (12), Third Person (9), Third-Person Shooter (6), Singleplayer (5)
Category: Single-player, Multi-player, Co-op, Steam Achievements, Steam Trading Cards, Steam Leaderboards
Release date: Jun 11, 2015
Price: $1.99 90%
Old userscore: 21% Owners: 50,000 .. 100,000
Followers: 3,667
Peak concurrent players yesterday: 108
YouTube stats: 832 views and 47 comments for top 50 videos uploaded last week, 0 new videos uploaded yesterday.
Playtime total: 00:57 (average) 00:57 (median)

Steam Spy is still in beta, so expect major bugs.

Owners data:

Access restricted.

This feature is only available to users with special access rights. Sorry.

If you want to proceed, you need to register or log in first and then back Steam Spy on Patreon. Look for Indie or Pro pledge.

Don't forget to use the same email as on Steam Spy!

If you've recently backed Steam Spy on Patreon, please note, that it might take around 15 minutes for your access rights to sync. In most cases you'll need to re-login on Steam Spy too.

Audience in 2 weeks:

Access restricted.

This feature is only available to users with special access rights. Sorry.

If you want to proceed, you need to register or log in first and then back Steam Spy on Patreon. Look for Indie or Pro pledge.

Don't forget to use the same email as on Steam Spy!

If you've recently backed Steam Spy on Patreon, please note, that it might take around 15 minutes for your access rights to sync. In most cases you'll need to re-login on Steam Spy too.

Peak daily concurrent players:

CCU data courtesy of SteamDB. Used with permission.

Hourly concurrent players:

Daily Twitch stats:

Hourly Twitch stats:

Followers over time

Access restricted.

This feature is only available to users with special access rights. Sorry.

If you want to proceed, you need to register or log in first and then back Steam Spy on Patreon. Look for Indie or Pro pledge.

Don't forget to use the same email as on Steam Spy!

If you've recently backed Steam Spy on Patreon, please note, that it might take around 15 minutes for your access rights to sync. In most cases you'll need to re-login on Steam Spy too.

Views for top 50 videos on YouTube for this game:

Games similar to this one:

# Game Release date
Price
Score rank
(Userscore / Metascore)
Owners
Players
Playtime (Median)
1 Castle Torgeath: Descent into Darkness Jan 22, 2016 N/AN/A (N/A)0 .. 20,0000%00:00 (00:00)
2 I Am The Hero Jan 16, 2017 $9.99N/A (N/A)50,000 .. 100,0000%00:00 (00:00)
3 Requiem: Avenging Angel Mar 31, 1999 $9.99N/A (N/A)100,000 .. 200,0000%00:00 (00:00)
4 Legends of the Universe - StarCore Jul 25, 2016 $0.49N/A (N/A)50,000 .. 100,0000%00:00 (00:00)
5 Lightblade VR May 31, 2016 $3.99N/A (N/A)100,000 .. 200,0000%00:00 (00:00)
6 Phantaruk Aug 16, 2016 $4.99N/A (N/A/53%)20,000 .. 50,0000%00:00 (00:00)
7 Plancon: Space Conflict Aug 8, 2016 $6.99N/A (N/A)20,000 .. 50,0000%00:00 (00:00)
8 Dimensional Dec 14, 2016 $4.99N/A (N/A)0 .. 20,0000%00:00 (00:00)
9 Spaceman Sparkles 3 Mar 21, 2016 $4.99N/A (N/A)20,000 .. 50,0000%00:00 (00:00)
10 Skylar & Plux: Adventure On Clover Island May 19, 2017 N/AN/A (N/A)20,000 .. 50,0000%00:00 (00:00)
11 Neighborhorde Jun 5, 2017 $4.99N/A (N/A)0 .. 20,0000%00:00 (00:00)
12 Silver Bullet: Prometheus Apr 8, 2016 $4.99N/A (N/A)0 .. 20,0000%00:00 (00:00)
13 NotCoD May 19, 2016 $4.99N/A (N/A)0 .. 20,0000%00:00 (00:00)
14 Aaero Apr 11, 2017 $14.99N/A (N/A)200,000 .. 500,0000%00:00 (00:00)
15 The Next World Mar 7, 2016 $12.99N/A (N/A)20,000 .. 50,0000%00:00 (00:00)
16 Bladestar Jan 15, 2016 $4.99N/A (N/A)0 .. 20,0000%00:00 (00:00)
17 Westboro Apr 27, 2017 $3.99N/A (N/A)100,000 .. 200,0000%00:00 (00:00)
18 Rocket Fist May 12, 2016 $4.99N/A (N/A)0 .. 20,0000%00:00 (00:00)
19 Raiden Legacy - Steam Edition Dec 10, 2015 $9.99N/A (N/A)20,000 .. 50,0000%00:00 (00:00)
20 Charlie Murder May 12, 2017 $9.99N/A (N/A)50,000 .. 100,0000%00:00 (00:00)
21 Flinthook Apr 18, 2017 $14.99N/A (N/A/80%)100,000 .. 200,0000%00:00 (00:00)
22 Mighty Gunvolt Sep 29, 2015 $4.99N/A (N/A)20,000 .. 50,0000%00:00 (00:00)
23 King Lucas Dec 1, 2016 $4.99N/A (N/A)20,000 .. 50,0000%00:00 (00:00)
24 Mayhem Triple Sep 4, 2015 $4.99N/A (N/A)0 .. 20,0000%00:00 (00:00)
25 Songs for a Hero - Definitive Edition Apr 30, 2020 $15.99N/A (N/A)100,000 .. 200,0000%00:00 (00:00)
26 Redneck Rampage Apr 30, 1997 $9.99N/A (N/A)50,000 .. 100,0000%00:00 (00:00)
27 Nongünz May 19, 2017 N/AN/A (N/A)20,000 .. 50,0000%00:00 (00:00)
28 iStorm Mar 16, 2017 FreeN/A (N/A)0 .. 20,0000%00:00 (00:00)
29 Polterheist Feb 21, 2017 $4.99N/A (N/A)200,000 .. 500,0000%00:00 (00:00)
30 Immortal Redneck Apr 25, 2017 $19.95N/A (N/A/70%)100,000 .. 200,0000%00:00 (00:00)
31 Davyria: Heroes of Eternity Mar 10, 2017 FreeN/A (N/A)0 .. 20,0000%00:00 (00:00)
32 The Ruins: VR Escape the Room Apr 13, 2017 $3.99N/A (N/A)0 .. 20,0000%00:00 (00:00)
33 Shovel Knight: Specter of Torment Apr 5, 2017 $9.99N/A (N/A)0 .. 20,0000%00:00 (00:00)
34 JET HERO Feb 17, 2017 $3.99N/A (N/A)0 .. 20,0000%00:00 (00:00)
35 Cavern of Time Feb 10, 2017 $3.99N/A (N/A)50,000 .. 100,0000%00:00 (00:00)
36 2 Ninjas 1 Cup Feb 3, 2017 $0.99N/A (N/A)20,000 .. 50,0000%00:00 (00:00)
37 Xenon Valkyrie Feb 3, 2017 $9.99N/A (N/A)0 .. 20,0000%00:00 (00:00)
38 Putrefaction 2: Void Walker May 29, 2017 $4.99N/A (N/A)50,000 .. 100,0000%00:00 (00:00)
39 Caladrius Blaze Jan 11, 2017 $19.99N/A (N/A)20,000 .. 50,0000%00:00 (00:00)
40 Rosenkreuzstilette Feb 2, 2017 $9.99N/A (N/A)20,000 .. 50,0000%00:00 (00:00)
41 Masked Forces Nov 23, 2016 $0.99N/A (N/A)50,000 .. 100,0000%00:00 (00:00)
42 Toukiden 2 Mar 21, 2017 $59.99N/A (N/A/73%)50,000 .. 100,0000%00:00 (00:00)
43 A Rose in the Twilight Apr 11, 2017 $19.99N/A (N/A)20,000 .. 50,0000%00:00 (00:00)
44 NightZ Feb 14, 2017 $0.99N/A (N/A)20,000 .. 50,0000%00:00 (00:00)
45 SPINGUN Nov 11, 2016 $1.99N/A (N/A)0 .. 20,0000%00:00 (00:00)
46 Scribble Ships Mar 29, 2017 $1.99N/A (N/A)0 .. 20,0000%00:00 (00:00)
47 Xenus 2. White gold. Nov 30, 2016 $14.99N/A (N/A)50,000 .. 100,0000%00:00 (00:00)
48 Aeon May 22, 2017 $9.99N/A (N/A)0 .. 20,0000%00:00 (00:00)
49 Disney Infinity 3.0: Gold Edition Dec 9, 2016 $29.99N/A (N/A)20,000 .. 50,0000%00:00 (00:00)
50 Quick Draw Jan 10, 2017 $0.99N/A (N/A)0 .. 20,0000%00:00 (00:00)
51 QUALIA 3: Multi Agent Apr 18, 2014 $4.99N/A (N/A)20,000 .. 50,0000%00:00 (00:00)
52 Guns, Gore & Cannoli Apr 30, 2015 $4.99N/A (N/A/80%)100,000 .. 200,0000%00:00 (00:00)
53 Fabula Mortis Oct 27, 2014 $7.99N/A (N/A)20,000 .. 50,0000%00:00 (00:00)
54 Disney G-Force Jul 21, 2009 $19.99N/A (N/A/61%)0 .. 20,0000%00:00 (00:00)
55 Dusk 12 Aug 28, 2009 $3.99N/A (N/A)20,000 .. 50,0000%00:00 (00:00)
56 Disney Alice in Wonderland Mar 2, 2010 $19.99N/A (N/A/63%)20,000 .. 50,0000%00:00 (00:00)
57 Alpha Zylon Dec 19, 2007 $0.99N/A (N/A)20,000 .. 50,0000%00:00 (00:00)
58 Red Johnson's Chronicles - 1+2 - Steam Special Edition Sep 5, 2014 $9.99N/A (N/A)20,000 .. 50,0000%00:00 (00:00)
59 Vertical Drop Heroes HD Jul 25, 2014 $6.99N/A (N/A/70%)100,000 .. 200,0000%00:00 (00:00)
60 Blinding Dark Aug 12, 2014 $9.99N/A (N/A)20,000 .. 50,0000%00:00 (00:00)
61 Super Rad Raygun Nov 8, 2016 N/AN/A (N/A/64%)0 .. 20,0000%00:00 (00:00)
62 Beyond Space Remastered Edition Jun 16, 2014 N/AN/A (N/A)20,000 .. 50,0000%00:00 (00:00)
63 NeonXSZ Feb 22, 2016 $2.49N/A (N/A)0 .. 20,0000%00:00 (00:00)
64 Mystik Belle May 15, 2015 $14.99N/A (N/A)0 .. 20,0000%00:00 (00:00)
65 Crouching Pony Hidden Dragon Jul 14, 2014 $1.99N/A (N/A)20,000 .. 50,0000%00:00 (00:00)
66 Project Root May 1, 2014 $9.99N/A (N/A)20,000 .. 50,0000%00:00 (00:00)
67 Majestic Nights Oct 30, 2014 $4.99N/A (N/A/32%)20,000 .. 50,0000%00:00 (00:00)
68 Masterspace Jun 15, 2015 $4.99N/A (N/A)0 .. 20,0000%00:00 (00:00)
69 The Dishwasher: Vampire Smile May 12, 2017 $9.99N/A (N/A)50,000 .. 100,0000%00:00 (00:00)
70 Iron Soul Feb 26, 2014 $4.99N/A (N/A)0 .. 20,0000%00:00 (00:00)
71 Wooden Sen'SeY Dec 5, 2013 $9.99N/A (N/A)20,000 .. 50,0000%00:00 (00:00)
72 Deathtrap Dungeon Jun 25, 1998 $6.99N/A (N/A)20,000 .. 50,0000%00:00 (00:00)
73 Epigenesis Aug 1, 2014 FreeN/A (N/A)100,000 .. 200,0000%00:00 (00:00)
74 Kill to Collect Apr 6, 2016 $1.99N/A (N/A/57%)20,000 .. 50,0000%00:00 (00:00)
75 Yar's Revenge Apr 28, 2011 $9.99N/A (N/A/56%)0 .. 20,0000%00:00 (00:00)
76 Terminal Velocity May 5, 2014 $6.99N/A (N/A)0 .. 20,0000%00:00 (00:00)
77 Nandeyanen!? - The 1st Sûtra Jul 22, 2015 $1.99N/A (N/A)0 .. 20,0000%00:00 (00:00)
78 Princess Kaguya: Legend of the Moon Warrior Aug 4, 2015 $10.99N/A (N/A)0 .. 20,0000%00:00 (00:00)
79 Exile's End Aug 31, 2015 $9.99N/A (N/A)0 .. 20,0000%00:00 (00:00)
80 Xenocide Aug 28, 2015 $2.99N/A (N/A)0 .. 20,0000%00:00 (00:00)
81 Hush Jul 29, 2015 $9.99N/A (N/A)0 .. 20,0000%00:00 (00:00)
82 Airport Madness: World Edition May 28, 2015 $9.99N/A (N/A)50,000 .. 100,0000%00:00 (00:00)
83 Predator Simulator May 11, 2015 $7.99N/A (N/A)20,000 .. 50,0000%00:00 (00:00)
84 Spaceman Sparkles 2 May 20, 2015 $2.99N/A (N/A)20,000 .. 50,0000%00:00 (00:00)
85 Fighties Jul 13, 2015 $4.99N/A (N/A)50,000 .. 100,0000%00:00 (00:00)
86 Xenophage: Alien Bloodsport Dec 29, 1995 N/AN/A (N/A)20,000 .. 50,0000%00:00 (00:00)
87 Stargunner Nov 19, 1996 FreeN/A (N/A)20,000 .. 50,0000%00:00 (00:00)
88 Greed: Black Border Jan 13, 2010 $4.99N/A (N/A)100,000 .. 200,0000%00:00 (00:00)
89 Word Rescue May 5, 2014 $4.99N/A (N/A)50,000 .. 100,0000%00:00 (00:00)
90 Bio Menace Aug 3, 1993 N/AN/A (N/A)0 .. 20,0000%00:00 (00:00)
91 Arctic Adventure Oct 9, 1991 N/AN/A (N/A)0 .. 20,0000%00:00 (00:00)
92 Zombie Camp: Last Survivor Apr 17, 2015 $1.99N/A (N/A)0 .. 20,0000%00:00 (00:00)
93 Caravan Sep 30, 2016 $5.99N/A (N/A)100,000 .. 200,0000%00:00 (00:00)
94 BIOS Dec 13, 2016 $2.99N/A (N/A)0 .. 20,0000%00:00 (00:00)
95 ABRACA - Imagic Games Mar 31, 2016 $14.99N/A (N/A)0 .. 20,0000%00:00 (00:00)
96 Disney's Chicken Little Oct 20, 2005 $9.99N/A (N/A)20,000 .. 50,0000%00:00 (00:00)
97 Redux: Dark Matters Dec 12, 2014 $9.99N/A (N/A/61%)0 .. 20,0000%00:00 (00:00)
98 Vintage Year Jan 2, 2015 $3.99N/A (N/A)20,000 .. 50,0000%00:00 (00:00)
99 Isbarah Feb 25, 2015 $13.99N/A (N/A)0 .. 20,0000%00:00 (00:00)

Tags over time:

Access restricted.

This feature is only available to users with special access rights. Sorry.

If you want to proceed, you need to register or log in first and then back Steam Spy on Patreon. Look for Indie or Pro pledge.

Don't forget to use the same email as on Steam Spy!

If you've recently backed Steam Spy on Patreon, please note, that it might take around 15 minutes for your access rights to sync. In most cases you'll need to re-login on Steam Spy too.

Owners of this game also own:

Access restricted.

This feature is only available to users with special access rights. Sorry.

If you want to proceed, you need to register or log in first and then back Steam Spy on Patreon. Look for Indie or Pro pledge.

Don't forget to use the same email as on Steam Spy!

If you've recently backed Steam Spy on Patreon, please note, that it might take around 15 minutes for your access rights to sync. In most cases you'll need to re-login on Steam Spy too.

Playtime distribution:

Access restricted.

This feature is only available to users with special access rights. Sorry.

If you want to proceed, you need to register or log in first and then back Steam Spy on Patreon. Look for Indie or Pro pledge.

Don't forget to use the same email as on Steam Spy!

If you've recently backed Steam Spy on Patreon, please note, that it might take around 15 minutes for your access rights to sync. In most cases you'll need to re-login on Steam Spy too.

Playtime (2 weeks):

Access restricted.

This feature is only available to users with special access rights. Sorry.

If you want to proceed, you need to register or log in first and then back Steam Spy on Patreon. Look for Indie or Pro pledge.

Don't forget to use the same email as on Steam Spy!

If you've recently backed Steam Spy on Patreon, please note, that it might take around 15 minutes for your access rights to sync. In most cases you'll need to re-login on Steam Spy too.

User reviews:

Login required.

Please register or log in to see this information.